Time;durP1;ratioP1;P1;durP2;ratioP2;P2;SDS_P1;SDS_P2;PMS_P1;PMS_P2;Temp;Humidity;BMP_temperature;BMP_pressure;BME280_temperature;BME280_humidity;BME280_pressure;Samples;Min_cycle;Max_cycle;Signal;HPM_P1;HPM_P2
2023/01/11 00:02:09;;;;;;;10.73;5.20;;;;;;;20.72;100.00;100450.22;5060042;28;19921;-54
2023/01/11 00:04:35;;;;;;;10.13;5.47;;;;;;;20.58;100.00;100446.44;5058610;28;20041;-53
2023/01/11 00:07:01;;;;;;;15.32;6.30;;;;;;;21.38;100.00;100444.13;5059026;28;20068;-54
2023/01/11 00:09:26;;;;;;;15.30;6.03;;;;;;;21.49;100.00;100449.22;5061521;28;20085;-56
2023/01/11 00:11:52;;;;;;;20.03;6.03;;;;;;;20.96;100.00;100438.00;5059034;28;20290;-53
2023/01/11 00:14:17;;;;;;;14.80;6.57;;;;;;;21.14;100.00;100431.16;5063622;28;20021;-54
2023/01/11 00:16:42;;;;;;;10.60;5.73;;;;;;;20.97;100.00;100436.91;5059882;28;20296;-56
2023/01/11 00:19:08;;;;;;;14.60;6.13;;;;;;;21.77;99.51;100432.53;5061523;28;20033;-54
2023/01/11 00:21:34;;;;;;;16.13;6.23;;;;;;;21.47;100.00;100431.59;5058998;28;20037;-53
2023/01/11 00:23:59;;;;;;;12.02;6.00;;;;;;;21.31;100.00;100422.66;5061878;28;20076;-56
2023/01/11 00:26:25;;;;;;;12.17;5.83;;;;;;;21.20;100.00;100419.97;5061738;28;20036;-56
2023/01/11 00:28:51;;;;;;;18.97;6.00;;;;;;;21.02;100.00;100421.41;5057936;28;20297;-54
2023/01/11 00:31:17;;;;;;;15.60;5.57;;;;;;;20.90;100.00;100429.84;5058512;28;20045;-56
2023/01/11 00:33:43;;;;;;;11.57;5.97;;;;;;;20.65;100.00;100443.47;5061182;28;20342;-56
2023/01/11 00:36:09;;;;;;;12.00;6.50;;;;;;;20.72;100.00;100450.22;5060075;28;20045;-56
2023/01/11 00:38:45;;;;;;;9.45;5.60;;;;;;;20.87;100.00;100430.38;5060656;28;20063;-51
2023/01/11 00:49:26;;;;;;;11.03;5.83;;;;;;;21.42;100.00;100426.97;5057061;28;20347;-52
2023/01/11 00:51:52;;;;;;;12.23;6.20;;;;;;;21.33;100.00;100425.91;5060743;28;20289;-52
2023/01/11 00:54:17;;;;;;;10.73;5.73;;;;;;;21.06;100.00;100414.31;5062167;28;20037;-54
2023/01/11 00:56:42;;;;;;;15.40;5.63;;;;;;;21.08;100.00;100416.75;5061389;28;20041;-52
2023/01/11 00:59:08;;;;;;;16.92;5.65;;;;;;;20.86;100.00;100415.16;5059874;28;20036;-51
2023/01/11 01:01:34;;;;;;;12.57;5.13;;;;;;;21.30;100.00;100421.03;5059850;28;20021;-51
2023/01/11 01:04:01;;;;;;;8.63;5.85;;;;;;;22.06;100.00;100426.38;5061903;28;20068;-53
2023/01/11 01:06:26;;;;;;;;;;;;;;;21.74;100.00;100414.06;5062265;28;20032;-52
2023/01/11 01:08:52;;;;;;;9.47;5.23;;;;;;;21.81;100.00;100419.19;5061065;28;19919;-55
2023/01/11 01:11:17;;;;;;;21.20;6.37;;;;;;;21.63;100.00;100408.63;5059825;28;20025;-53
2023/01/11 01:16:27;;;;;;;9.17;5.10;;;;;;;21.25;100.00;100410.16;5058432;28;20052;-55
2023/01/11 01:18:55;;;;;;;14.80;5.13;;;;;;;21.40;100.00;100414.72;5060621;28;20292;-54
2023/01/11 01:21:22;;;;;;;10.10;5.27;;;;;;;21.23;100.00;100425.94;5060829;28;20484;-56
2023/01/11 01:23:50;;;;;;;11.60;5.23;;;;;;;21.66;100.00;100420.91;5057781;28;20350;-54
2023/01/11 01:26:15;;;;;;;11.50;5.70;;;;;;;21.30;100.00;100424.56;5060140;28;20270;-53
2023/01/11 01:28:41;;;;;;;15.60;5.20;;;;;;;20.19;100.00;100424.16;5060375;28;20277;-56
2023/01/11 01:31:08;;;;;;;14.27;5.60;;;;;;;20.84;100.00;100420.06;5062470;28;20049;-56
2023/01/11 01:33:35;;;;;;;22.37;5.90;;;;;;;20.46;100.00;100414.13;5060920;28;20033;-57
2023/01/11 01:36:01;;;;;;;12.80;5.72;;;;;;;20.94;100.00;100419.22;5060242;28;20273;-57
2023/01/11 01:38:26;;;;;;;11.38;5.82;;;;;;;20.50;100.00;100426.06;5062218;28;20033;-57
2023/01/11 01:40:52;;;;;;;13.30;5.53;;;;;;;21.26;100.00;100420.78;5055872;28;20029;-57
2023/01/11 01:43:17;;;;;;;22.33;5.10;;;;;;;21.11;100.00;100405.34;5061395;28;20293;-57
2023/01/11 01:45:43;;;;;;;10.50;4.90;;;;;;;20.77;100.00;100425.78;5063713;28;20038;-53
2023/01/11 01:48:13;;;;;;;16.60;5.50;;;;;;;19.94;100.00;100418.69;5056200;28;20044;-58
2023/01/11 01:50:53;;;;;;;26.43;6.70;;;;;;;20.40;100.00;100431.47;5066608;28;20346;-56
2023/01/11 01:53:25;;;;;;;15.53;7.27;;;;;;;20.46;100.00;100403.25;5065188;28;20341;-58
2023/01/11 01:55:54;;;;;;;16.93;6.73;;;;;;;20.73;100.00;100416.53;5061400;28;20304;-56
2023/01/11 01:58:24;;;;;;;15.33;6.00;;;;;;;21.00;100.00;100401.00;5062232;28;20370;-58
2023/01/11 02:00:50;;;;;;;13.07;5.53;;;;;;;20.73;100.00;100413.81;5058649;28;20297;-56
2023/01/11 02:03:19;;;;;;;11.27;5.07;;;;;;;21.01;100.00;100425.22;5060046;28;20337;-58
2023/01/11 02:05:47;;;;;;;18.47;8.03;;;;;;;20.20;100.00;100406.78;5061303;28;20045;-55
2023/01/11 02:08:25;;;;;;;14.67;8.10;;;;;;;20.54;100.00;100410.06;5061683;28;20293;-56
2023/01/11 02:10:52;;;;;;;13.93;5.73;;;;;;;20.83;100.00;100404.84;5058007;28;20276;-58
2023/01/11 02:13:19;;;;;;;18.63;7.40;;;;;;;20.52;100.00;100417.63;5059216;28;20293;-56
2023/01/11 02:16:06;;;;;;;17.57;7.83;;;;;;;21.04;100.00;100402.09;5058439;28;20373;-58
2023/01/11 02:18:31;;;;;;;17.53;7.47;;;;;;;21.11;100.00;100407.22;5059177;28;20282;-57
2023/01/11 02:21:34;;;;;;;24.88;11.88;;;;;;;21.58;100.00;100419.53;5059208;28;20265;-57
2023/01/11 02:24:37;;;;;;;29.10;10.03;;;;;;;20.73;100.00;100413.81;5060917;28;20037;-58
2023/01/11 02:27:23;;;;;;;25.37;12.03;;;;;;;20.96;100.00;100408.09;5061203;28;20275;-59
2023/01/11 02:30:08;;;;;;;25.73;12.37;;;;;;;20.77;100.00;100414.91;5058008;28;20267;-57
2023/01/11 02:32:57;;;;;;;25.93;12.57;;;;;;;20.67;100.00;100409.47;5058598;28;20306;-55
2023/01/11 02:35:51;;;;;;;29.40;13.30;;;;;;;21.78;100.00;100409.69;5062234;28;20499;-57
2023/01/11 02:38:41;;;;;;;22.80;10.90;;;;;;;21.27;100.00;100413.44;5061863;28;20273;-58
2023/01/11 02:41:07;;;;;;;14.80;8.53;;;;;;;21.55;100.00;100411.13;5067557;28;20266;-53
2023/01/11 02:46:41;;;;;;;26.63;12.00;;;;;;;21.14;100.00;100402.06;5065004;28;20036;-58
2023/01/11 02:49:32;;;;;;;16.27;8.07;;;;;;;21.16;100.00;100428.97;5066040;28;20266;-58
2023/01/11 02:52:07;;;;;;;18.77;9.57;;;;;;;21.17;100.00;100406.94;5060868;28;20302;-57
2023/01/11 02:54:34;;;;;;;17.17;8.47;;;;;;;21.55;100.00;100401.06;5063310;28;20258;-56
2023/01/11 02:57:01;;;;;;;12.13;7.90;;;;;;;21.52;100.00;100401.63;5060501;28;20301;-55
2023/01/11 02:59:31;;;;;;;11.03;6.27;;;;;;;21.09;100.00;100403.97;5060907;28;20301;-56
2023/01/11 03:01:58;;;;;;;9.50;6.57;;;;;;;20.84;100.00;100405.69;5061970;28;20311;-57
2023/01/11 03:04:35;;;;;;;19.30;7.18;;;;;;;21.00;100.00;100401.84;5061515;28;20270;-59
2023/01/11 03:07:21;;;;;;;13.33;6.67;;;;;;;22.17;100.00;100422.50;5063956;28;20033;-56
2023/01/11 03:10:07;;;;;;;9.90;6.73;;;;;;;22.26;100.00;100413.69;5065835;28;20300;-56
2023/01/11 03:13:07;;;;;;;8.33;5.43;;;;;;;21.43;100.00;100406.00;5059896;28;20302;-57
2023/01/11 03:16:13;;;;;;;11.63;6.17;;;;;;;22.03;100.00;100418.78;5062364;28;20335;-58
2023/01/11 03:18:39;;;;;;;12.27;5.80;;;;;;;22.31;100.00;100405.47;5062555;28;20290;-56
2023/01/11 03:21:13;;;;;;;11.17;5.87;;;;;;;22.03;100.00;100419.59;5060538;28;20279;-55
2023/01/11 03:23:56;;;;;;;7.20;4.87;;;;;;;22.18;100.00;100418.66;5059121;28;20049;-55
2023/01/11 03:26:39;;;;;;;8.60;5.10;;;;;;;21.99;100.00;100415.00;5065373;28;20278;-56
2023/01/11 03:29:09;;;;;;;6.80;4.73;;;;;;;22.20;100.00;100415.63;5069438;28;20343;-57
2023/01/11 03:31:45;;;;;;;9.57;5.70;;;;;;;21.72;100.00;100405.38;5061367;28;20278;-56
2023/01/11 03:34:30;;;;;;;8.47;5.40;;;;;;;21.88;100.00;100409.59;5065739;28;20257;-55
2023/01/11 03:37:21;;;;;;;12.43;5.33;;;;;;;20.99;100.00;100423.84;5060117;28;20280;-54
2023/01/11 03:40:01;;;;;;;14.07;6.03;;;;;;;21.57;100.00;100409.75;5059336;28;20274;-56
2023/01/11 03:42:29;;;;;;;10.43;6.87;;;;;;;21.12;100.00;100408.84;5059042;28;20293;-55
2023/01/11 03:44:56;;;;;;;12.27;6.67;;;;;;;20.98;100.00;100400.47;5064220;28;20279;-56
2023/01/11 03:47:24;;;;;;;13.33;6.63;;;;;;;21.70;100.00;100405.63;5062345;28;20267;-55
2023/01/11 03:50:05;;;;;;;10.47;6.70;;;;;;;21.70;100.00;100402.91;5059936;28;20266;-54
2023/01/11 03:52:35;;;;;;;12.97;6.70;;;;;;;21.16;100.00;100415.38;5061181;28;20328;-55
2023/01/11 03:55:05;;;;;;;11.60;7.17;;;;;;;21.67;100.00;100418.97;5063093;28;20282;-54
2023/01/11 03:57:34;;;;;;;12.83;7.17;;;;;;;27.31;100.00;100445.19;5063273;28;20301;-55
2023/01/11 04:00:00;;;;;;;15.37;6.70;;;;;;;24.17;98.07;100438.81;5057587;28;20294;-55
2023/01/11 04:02:32;;;;;;;11.70;7.60;;;;;;;23.47;100.00;100449.34;5065954;28;20282;-56
2023/01/11 04:04:58;;;;;;;16.10;7.50;;;;;;;22.87;100.00;100444.25;5060428;28;20029;-56
2023/01/11 04:07:23;;;;;;;13.43;8.10;;;;;;;22.44;100.00;100440.25;5062542;28;20258;-55
2023/01/11 04:09:49;;;;;;;12.80;8.13;;;;;;;23.00;100.00;100459.13;5063922;28;20052;-56
2023/01/11 04:12:15;;;;;;;17.50;8.93;;;;;;;22.32;100.00;100454.22;5059693;28;20033;-57
2023/01/11 04:14:41;;;;;;;14.85;8.57;;;;;;;20.97;100.00;100445.84;5063937;28;20037;-56
2023/01/11 04:17:06;;;;;;;15.00;8.47;;;;;;;21.19;100.00;100442.00;5065725;28;20047;-57
2023/01/11 04:19:32;;;;;;;14.25;8.48;;;;;;;21.54;100.00;100451.13;5065701;28;20056;-57
2023/01/11 04:21:57;;;;;;;12.45;7.90;;;;;;;25.33;99.41;100461.94;5059987;28;20057;-57
2023/01/11 04:24:23;;;;;;;18.65;8.45;;;;;;;24.58;100.00;100475.63;5063185;28;20055;-54
2023/01/11 04:26:48;;;;;;;26.42;9.40;;;;;;;22.76;100.00;100470.81;5065964;28;20033;-54
2023/01/11 04:29:14;;;;;;;18.40;9.03;;;;;;;22.49;100.00;100472.94;5062864;28;20058;-56
2023/01/11 04:31:39;;;;;;;16.40;8.60;;;;;;;22.99;100.00;100480.09;5058048;28;20076;-56
2023/01/11 04:34:05;;;;;;;14.27;7.83;;;;;;;22.29;100.00;100456.69;5063830;28;20127;-58
2023/01/11 04:36:31;;;;;;;12.18;7.05;;;;;;;24.51;100.00;100450.56;5060111;28;20034;-57
2023/01/11 04:38:57;;;;;;;14.20;8.13;;;;;;;23.62;100.00;100456.50;5058125;28;20048;-55
2023/01/11 04:44:07;;;;;;;10.30;6.90;;;;;;;23.21;100.00;100462.41;5060698;28;20064;-57
2023/01/11 04:46:32;;;;;;;16.77;8.00;;;;;;;23.43;100.00;100466.56;5059115;28;20293;-57
2023/01/11 04:48:58;;;;;;;14.03;7.33;;;;;;;24.02;100.00;100467.19;5065036;28;20341;-56
2023/01/11 04:51:24;;;;;;;12.75;7.45;;;;;;;23.55;100.00;100455.22;5059839;28;20032;-58
2023/01/11 04:53:49;;;;;;;14.82;7.53;;;;;;;21.73;100.00;100467.66;5059710;28;20089;-53
2023/01/11 04:56:15;;;;;;;15.13;7.88;;;;;;;21.39;100.00;100476.50;5052600;28;20057;-57
2023/01/11 04:58:41;;;;;;;18.48;8.48;;;;;;;21.88;100.00;100483.09;5062222;28;20044;-54
2023/01/11 05:01:14;;;;;;;13.37;6.60;;;;;;;21.69;100.00;100463.88;5056173;28;20041;-57
2023/01/11 05:03:39;;;;;;;19.43;8.17;;;;;;;22.14;100.00;100480.22;5057015;28;20046;-56
2023/01/11 05:06:05;;;;;;;14.23;7.45;;;;;;;21.37;100.00;100469.69;5054235;28;20377;-56
2023/01/11 05:08:31;;;;;;;16.88;6.68;;;;;;;22.07;100.00;100477.00;5057969;28;20037;-57
2023/01/11 05:11:02;;;;;;;13.27;7.05;;;;;;;22.33;100.00;100471.38;5056300;28;20029;-58
2023/01/11 05:13:40;;;;;;;10.33;5.73;;;;;;;21.69;100.00;100485.66;5059172;28;20052;-56
2023/01/11 05:16:17;;;;;;;22.17;7.13;;;;;;;20.81;100.00;100482.31;5059425;28;20285;-57
2023/01/11 05:18:45;;;;;;;16.83;6.93;;;;;;;21.59;100.00;100494.63;5058900;28;20323;-55
2023/01/11 05:21:12;;;;;;;15.90;7.17;;;;;;;22.88;100.00;100484.03;5061076;28;20029;-57
2023/01/11 05:23:39;;;;;;;15.73;6.33;;;;;;;22.26;100.00;100498.97;5057547;28;20294;-56
2023/01/11 05:26:08;;;;;;;18.67;6.60;;;;;;;22.80;100.00;100510.00;5057759;28;20278;-56
2023/01/11 05:28:34;;;;;;;16.67;5.87;;;;;;;23.37;100.00;100516.84;5058691;28;20033;-54
2023/01/11 05:31:00;;;;;;;16.50;5.45;;;;;;;23.74;100.00;100520.75;5056471;28;20267;-57
2023/01/11 05:33:27;;;;;;;15.30;5.40;;;;;;;21.96;100.00;100522.53;5061551;28;20022;-57
2023/01/11 05:36:00;;;;;;;22.08;4.75;;;;;;;21.92;100.00;100519.56;5056555;28;20038;-57
2023/01/11 05:38:26;;;;;;;22.77;5.87;;;;;;;20.47;100.00;100513.53;5051998;28;20111;-56
2023/01/11 05:41:19;;;;;;;13.90;4.43;;;;;;;21.26;100.00;100515.13;5060234;28;20266;-57
2023/01/11 05:46:32;;;;;;;20.60;4.87;;;;;;;21.00;100.00;100507.84;5059696;28;20355;-55
2023/01/11 05:48:58;;;;;;;17.77;4.10;;;;;;;21.18;100.00;100517.34;5060800;28;20262;-57
2023/01/11 05:51:25;;;;;;;17.95;4.85;;;;;;;20.54;100.00;100510.56;5057955;28;20271;-56
2023/01/11 05:53:52;;;;;;;21.77;6.10;;;;;;;20.55;100.00;100521.13;5059783;28;20064;-56
2023/01/11 05:56:20;;;;;;;22.33;4.82;;;;;;;20.97;100.00;100515.72;5059733;28;20266;-57
2023/01/11 05:58:47;;;;;;;23.20;6.90;;;;;;;20.06;100.00;100514.25;5062794;28;20048;-55
2023/01/11 06:01:14;;;;;;;41.43;7.00;;;;;;;20.49;100.00;100517.59;5056827;28;20259;-56
2023/01/11 06:03:41;;;;;;;50.70;8.47;;;;;;;21.20;100.00;100525.19;5060704;28;20302;-56
2023/01/11 06:06:06;;;;;;;25.98;5.90;;;;;;;21.24;100.00;100520.03;5058087;28;20281;-54
2023/01/11 06:08:32;;;;;;;34.95;6.55;;;;;;;21.23;100.00;100511.06;5064364;28;20107;-56
2023/01/11 06:10:58;;;;;;;34.33;5.88;;;;;;;20.66;100.00;100521.16;5062932;28;20029;-52
2023/01/11 06:13:27;;;;;;;27.43;4.77;;;;;;;20.26;100.00;100529.78;5064093;28;20096;-56
2023/01/11 06:15:56;;;;;;;47.83;5.90;;;;;;;20.69;100.00;100521.41;5062775;28;20036;-56
2023/01/11 06:18:22;;;;;;;35.10;4.97;;;;;;;20.61;100.00;100530.91;5064400;28;20259;-54
2023/01/11 06:20:49;;;;;;;29.70;5.13;;;;;;;23.03;100.00;100565.69;5060643;28;20281;-53
2023/01/11 06:23:14;;;;;;;39.33;5.47;;;;;;;20.35;100.00;100543.66;5062140;28;20034;-54
2023/01/11 06:25:40;;;;;;;30.97;4.23;;;;;;;19.80;100.00;100537.75;5060933;28;20308;-56
2023/01/11 06:28:05;;;;;;;38.10;4.97;;;;;;;20.31;100.00;100556.94;5063624;28;20087;-51
2023/01/11 06:30:31;;;;;;;39.50;5.07;;;;;;;20.10;100.00;100558.78;5063792;28;20033;-52
2023/01/11 06:33:05;;;;;;;22.90;4.27;;;;;;;20.08;100.00;100555.53;5064849;28;20116;-53
2023/01/11 06:35:36;;;;;;;23.40;4.20;;;;;;;20.01;100.00;100557.66;5063263;28;20269;-54
2023/01/11 06:38:02;;;;;;;31.70;5.80;;;;;;;22.32;99.83;100567.81;5063754;28;20326;-53
2023/01/11 06:40:28;;;;;;;34.17;5.57;;;;;;;28.23;79.81;100599.41;5063512;28;20278;-53
2023/01/11 06:42:54;;;;;;;39.90;5.30;;;;;;;22.86;90.81;100582.47;5063777;28;20036;-53
2023/01/11 06:45:20;;;;;;;27.35;5.15;;;;;;;27.77;79.47;100594.09;5063766;28;20028;-54
2023/01/11 06:47:45;;;;;;;30.80;6.13;;;;;;;26.39;75.17;100601.94;5064888;28;20052;-55
2023/01/11 06:50:11;;;;;;;41.72;4.55;;;;;;;22.54;89.45;100580.25;5061437;28;20064;-55
2023/01/11 06:52:36;;;;;;;39.00;5.10;;;;;;;22.82;86.53;100597.75;5066022;28;20121;-55
2023/01/11 06:55:02;;;;;;;26.90;4.27;;;;;;;22.63;87.02;100605.81;5063039;28;20033;-54
2023/01/11 06:57:28;;;;;;;33.97;4.78;;;;;;;22.62;87.43;100598.72;5060837;28;20301;-52
2023/01/11 06:59:54;;;;;;;;;;;;;;;21.97;90.92;100586.75;5064484;28;20056;-55
2023/01/11 07:02:20;;;;;;;26.70;3.37;;;;;;;20.89;100.00;100587.75;5059448;28;19917;-52
2023/01/11 07:04:45;;;;;;;29.50;4.87;;;;;;;20.19;100.00;100588.97;5062100;28;20030;-58
2023/01/11 07:07:11;;;;;;;29.63;4.63;;;;;;;19.37;100.00;100606.41;5066419;28;20330;-55
2023/01/11 07:09:36;;;;;;;26.52;3.78;;;;;;;19.49;100.00;100625.19;5061751;28;20049;-52
2023/01/11 07:12:02;;;;;;;20.20;4.33;;;;;;;19.22;100.00;100630.66;5061993;28;20033;-56
2023/01/11 07:14:27;;;;;;;26.80;4.07;;;;;;;20.22;100.00;100634.56;5064104;28;20346;-55
2023/01/11 07:16:53;;;;;;;23.97;4.00;;;;;;;19.87;100.00;100639.53;5065257;28;20274;-54
2023/01/11 07:19:18;;;;;;;40.22;5.80;;;;;;;20.22;100.00;100626.44;5065504;28;20029;-54
2023/01/11 07:21:44;;;;;;;37.23;5.23;;;;;;;20.32;100.00;100625.66;5062098;28;20056;-55
2023/01/11 07:24:09;;;;;;;31.07;4.70;;;;;;;20.24;100.00;100620.72;5067495;28;20297;-54
2023/01/11 07:26:40;;;;;;;27.83;3.93;;;;;;;19.95;100.00;100626.56;5058560;28;20037;-52
2023/01/11 07:29:06;;;;;;;34.97;4.10;;;;;;;19.52;100.00;100635.50;5060119;28;20442;-52
2023/01/11 07:31:32;;;;;;;25.97;3.30;;;;;;;19.74;100.00;100640.81;5067715;28;20314;-53
2023/01/11 07:33:57;;;;;;;22.37;3.13;;;;;;;20.28;100.00;100648.97;5064141;28;20267;-51
2023/01/11 07:36:23;;;;;;;26.38;4.30;;;;;;;21.13;96.52;100660.63;5065283;28;20056;-56
2023/01/11 07:38:48;;;;;;;31.77;5.77;;;;;;;20.00;100.00;100651.84;5064222;28;20040;-53
2023/01/11 07:43:57;;;;;;;24.07;4.07;;;;;;;19.92;100.00;100665.91;5062916;28;20038;-52
2023/01/11 07:46:23;;;;;;;31.70;5.03;;;;;;;19.38;100.00;100666.88;5057790;28;20269;-51
2023/01/11 07:48:49;;;;;;;31.30;4.45;;;;;;;19.54;100.00;100675.94;5061190;28;20040;-51
2023/01/11 07:51:19;;;;;;;39.60;5.23;;;;;;;19.34;100.00;100672.00;5059343;28;20053;-52
2023/01/11 07:53:44;;;;;;;39.97;4.50;;;;;;;19.34;100.00;100682.84;5062802;28;20270;-55
2023/01/11 07:56:10;;;;;;;29.67;4.57;;;;;;;19.30;100.00;100681.72;5062308;28;20275;-50
2023/01/11 07:58:35;;;;;;;24.90;4.15;;;;;;;19.81;100.00;100692.13;5064349;28;20277;-49
2023/01/11 08:01:01;;;;;;;27.30;3.67;;;;;;;18.90;100.00;100689.16;5060995;28;20033;-53
2023/01/11 08:03:26;;;;;;;24.02;4.47;;;;;;;19.23;100.00;100692.78;5063561;28;20029;-51
2023/01/11 08:05:53;;;;;;;26.67;4.37;;;;;;;19.85;100.00;100704.09;5062573;28;20044;-53
2023/01/11 08:08:19;;;;;;;29.83;4.07;;;;;;;19.76;100.00;100708.38;5058721;28;20301;-53
2023/01/11 08:10:44;;;;;;;28.52;3.83;;;;;;;19.43;100.00;100710.28;5060859;28;20030;-53
2023/01/11 08:15:57;;;;;;;23.77;4.07;;;;;;;19.33;100.00;100733.50;5053524;28;20310;-53
2023/01/11 08:18:22;;;;;;;38.47;5.05;;;;;;;19.29;100.00;100740.53;5051744;28;20296;-53
2023/01/11 08:20:52;;;;;;;42.27;5.40;;;;;;;19.10;100.00;100740.09;5056466;28;20093;-54
2023/01/11 08:23:18;;;;;;;26.93;4.20;;;;;;;19.13;100.00;100744.16;5055407;28;20034;-52
2023/01/11 08:25:44;;;;;;;27.70;4.53;;;;;;;19.01;100.00;100742.44;5055451;28;20289;-53
2023/01/11 08:28:10;;;;;;;32.40;4.57;;;;;;;18.90;100.00;100755.00;5063304;28;20057;-51
2023/01/11 08:30:37;;;;;;;29.83;4.37;;;;;;;18.30;100.00;100767.53;5063200;28;20035;-52
2023/01/11 08:33:04;;;;;;;29.45;4.78;;;;;;;19.01;100.00;100761.41;5054643;28;20271;-53
2023/01/11 08:35:35;;;;;;;31.23;3.83;;;;;;;18.51;100.00;100765.09;5056570;28;20033;-53
2023/01/11 08:38:01;;;;;;;40.73;4.40;;;;;;;18.38;100.00;100775.19;5060503;28;20281;-52
2023/01/11 08:40:26;;;;;;;39.07;4.63;;;;;;;19.08;100.00;100777.47;5060186;28;20349;-55
2023/01/11 08:42:55;;;;;;;22.63;4.20;;;;;;;18.96;100.00;100774.88;5056955;28;20040;-55
2023/01/11 08:45:21;;;;;;;21.70;4.30;;;;;;;19.78;100.00;100790.31;5056388;28;20033;-51
2023/01/11 08:47:47;;;;;;;34.97;4.37;;;;;;;18.80;100.00;100792.00;5057499;28;20277;-54
2023/01/11 08:50:15;;;;;;;29.55;4.72;;;;;;;19.41;100.00;100796.50;5054401;28;20041;-51
2023/01/11 08:52:42;;;;;;;39.30;4.90;;;;;;;19.35;100.00;100788.31;5054750;28;20034;-51
2023/01/11 08:55:07;;;;;;;24.10;5.17;;;;;;;19.85;100.00;100790.94;5054913;28;20263;-53
2023/01/11 08:57:35;;;;;;;42.92;4.60;;;;;;;21.48;88.04;100800.44;5054477;28;20289;-52
2023/01/11 09:00:04;;;;;;;27.10;4.53;;;;;;;25.24;80.61;100810.47;5057842;28;20044;-52
2023/01/11 09:02:29;;;;;;;27.23;4.10;;;;;;;25.63;71.57;100809.38;5056815;28;20309;-52
2023/01/11 09:04:55;;;;;;;43.80;5.47;;;;;;;26.16;63.32;100818.31;5057096;28;20274;-53
2023/01/11 09:07:20;;;;;;;34.05;6.47;;;;;;;26.41;63.79;100825.31;5055572;28;20122;-52
2023/01/11 09:09:46;;;;;;;22.57;4.07;;;;;;;23.76;67.86;100824.34;5058599;28;20041;-56
2023/01/11 09:12:11;;;;;;;32.27;3.67;;;;;;;26.61;65.53;100831.50;5055905;28;20267;-50
2023/01/11 09:14:37;;;;;;;29.77;5.50;;;;;;;24.60;66.36;100830.66;5057063;28;20037;-51
2023/01/11 09:17:02;;;;;;;24.90;3.10;;;;;;;20.43;84.00;100835.63;5060614;28;20064;-52
2023/01/11 09:19:27;;;;;;;27.23;4.13;;;;;;;23.31;76.87;100836.09;5057907;28;20056;-48
2023/01/11 09:21:56;;;;;;;36.80;5.40;;;;;;;25.24;65.74;100852.34;5057823;28;20052;-50
2023/01/11 09:24:21;;;;;;;37.37;5.57;;;;;;;24.47;66.30;100851.31;5052269;28;20067;-53
2023/01/11 09:26:47;;;;;;;22.83;4.30;;;;;;;24.81;66.44;100852.34;5057472;28;20262;-52
2023/01/11 09:29:13;;;;;;;23.20;3.70;;;;;;;24.77;66.99;100857.56;5058033;28;20064;-51
2023/01/11 09:31:39;;;;;;;22.83;3.78;;;;;;;23.11;69.65;100856.06;5058747;28;20045;-54
2023/01/11 09:34:05;;;;;;;42.40;6.85;;;;;;;20.44;77.87;100851.66;5057908;28;20041;-50
2023/01/11 09:36:34;;;;;;;33.07;4.00;;;;;;;20.56;82.65;100842.50;5055264;28;20037;-52
2023/01/11 09:39:04;;;;;;;19.63;3.90;;;;;;;20.53;84.99;100841.13;5055966;28;20334;-54
2023/01/11 09:41:59;;;;;;;26.63;4.57;;;;;;;20.88;83.79;100844.31;5074746;28;20258;-53
2023/01/11 09:44:28;;;;;;;34.90;5.07;;;;;;;22.33;78.27;100839.94;5059396;28;20261;-52
2023/01/11 09:47:18;;;;;;;28.03;4.13;;;;;;;22.56;77.70;100848.66;5060899;28;20275;-53
2023/01/11 09:49:53;;;;;;;28.00;3.83;;;;;;;22.70;78.49;100853.50;5056449;28;20270;-55
2023/01/11 09:52:27;;;;;;;20.37;4.37;;;;;;;22.29;79.06;100855.22;5062805;28;20342;-50
2023/01/11 09:54:53;;;;;;;23.13;4.30;;;;;;;22.34;75.54;100859.81;5058672;28;20282;-51
2023/01/11 09:57:34;;;;;;;19.52;3.15;;;;;;;22.72;75.46;100863.03;5059825;28;20266;-54
2023/01/11 10:00:14;;;;;;;22.20;3.30;;;;;;;23.76;73.66;100868.03;5054358;28;20053;-48
2023/01/11 10:03:20;;;;;;;21.70;4.03;;;;;;;24.19;73.83;100854.56;5058814;28;20042;-50
2023/01/11 10:06:02;;;;;;;22.17;3.53;;;;;;;24.12;71.47;100854.09;5041857;28;20559;-52
2023/01/11 10:09:06;;;;;;;21.93;3.20;;;;;;;23.61;71.90;100863.47;5056919;28;20025;-54
2023/01/11 10:11:42;;;;;;;12.97;3.10;;;;;;;23.13;74.39;100864.78;5055392;28;20033;-52
2023/01/11 10:14:26;;;;;;;13.83;3.63;;;;;;;23.23;74.62;100869.38;5057081;28;20047;-50
2023/01/11 10:17:07;;;;;;;20.30;2.60;;;;;;;25.20;70.18;100882.19;5059273;28;20057;-54
2023/01/11 10:19:44;;;;;;;17.07;3.40;;;;;;;24.04;72.73;100868.38;5057291;28;20094;-51
2023/01/11 10:22:22;;;;;;;23.52;4.13;;;;;;;24.75;70.24;100879.75;5058473;28;20060;-48
2023/01/11 10:24:56;;;;;;;16.90;3.20;;;;;;;22.65;73.22;100867.97;5056766;28;20036;-52
2023/01/11 10:27:37;;;;;;;17.30;3.23;;;;;;;23.02;72.14;100879.59;5055010;28;20037;-51
2023/01/11 10:30:32;;;;;;;27.73;4.17;;;;;;;23.24;75.23;100862.84;5056333;28;20105;-54
2023/01/11 10:42:21;;;;;;;28.13;4.60;;;;;;;23.67;70.90;100870.53;5007964;28;20078;-57
2023/01/11 10:45:04;;;;;;;18.33;3.80;;;;;;;24.07;67.33;100886.94;5044961;28;20076;-54
2023/01/11 10:47:38;;;;;;;19.00;3.37;;;;;;;23.97;66.90;100887.78;5056691;28;20037;-54
2023/01/11 10:50:12;;;;;;;19.23;3.20;;;;;;;24.21;67.46;100898.00;5054904;28;20041;-52
2023/01/11 10:52:46;;;;;;;15.00;3.20;;;;;;;24.34;67.78;100888.34;5053585;28;20059;-53
2023/01/11 10:55:36;;;;;;;24.53;3.43;;;;;;;25.51;66.88;100885.69;5059820;28;20056;-52
2023/01/11 10:58:37;;;;;;;21.73;3.13;;;;;;;26.73;62.04;100896.81;5062061;28;20029;-55
2023/01/11 11:01:27;;;;;;;21.30;3.43;;;;;;;25.51;63.16;100911.13;5057437;28;20034;-54
2023/01/11 11:04:04;;;;;;;13.57;2.73;;;;;;;25.95;62.05;100900.06;5059732;28;20055;-52
2023/01/11 11:06:32;;;;;;;15.63;3.67;;;;;;;26.27;59.96;100928.63;5058699;28;20035;-55
2023/01/11 11:09:34;;;;;;;21.87;3.77;;;;;;;25.56;61.94;100916.50;5053123;28;20041;-54
2023/01/11 11:12:20;;;;;;;15.63;2.90;;;;;;;23.36;63.67;100910.84;5058211;28;20033;-53
2023/01/11 11:15:13;;;;;;;14.63;2.97;;;;;;;26.35;61.58;100903.28;5058941;28;20120;-54
2023/01/11 11:17:44;;;;;;;18.33;3.10;;;;;;;24.86;61.73;100915.16;5058536;28;20033;-53
2023/01/11 11:20:16;;;;;;;16.57;3.20;;;;;;;24.68;63.30;100912.06;5057172;28;20101;-52
2023/01/11 11:22:43;;;;;;;16.37;3.10;;;;;;;24.65;62.30;100909.88;5058146;28;20029;-54
2023/01/11 11:25:18;;;;;;;19.80;3.40;;;;;;;23.06;63.83;100899.75;5062264;28;20040;-53
2023/01/11 11:27:49;;;;;;;22.50;2.47;;;;;;;23.87;63.04;100894.16;5054802;28;20033;-52
2023/01/11 11:30:27;;;;;;;22.50;3.90;;;;;;;24.61;61.20;100909.66;5063420;28;20029;-56
2023/01/11 11:33:23;;;;;;;20.97;3.27;;;;;;;24.94;59.26;100920.03;5040026;28;20036;-54
2023/01/11 11:36:03;;;;;;;15.83;3.23;;;;;;;25.28;58.10;100904.56;5061687;28;20056;-56
2023/01/11 11:38:40;;;;;;;21.40;3.43;;;;;;;26.13;57.20;100891.00;5058517;28;20021;-54
2023/01/11 11:41:11;;;;;;;16.80;2.80;;;;;;;25.57;57.30;100928.28;5058632;28;20052;-54
2023/01/11 11:43:43;;;;;;;22.33;3.57;;;;;;;24.74;58.42;100910.06;5059045;28;20033;-55
2023/01/11 11:46:14;;;;;;;20.13;3.80;;;;;;;23.76;60.71;100911.72;5061736;28;20052;-55
2023/01/11 11:48:42;;;;;;;17.43;4.03;;;;;;;23.30;62.13;100908.13;5059640;28;20101;-52
2023/01/11 11:51:22;;;;;;;16.50;2.63;;;;;;;23.83;62.42;100893.09;5061243;28;20025;-53
2023/01/11 11:53:52;;;;;;;22.67;3.73;;;;;;;24.33;59.89;100898.44;5058706;28;20036;-52
2023/01/11 11:56:40;;;;;;;20.47;3.80;;;;;;;24.17;59.61;100914.16;5059085;28;20489;-53
2023/01/11 11:59:16;;;;;;;23.93;4.07;;;;;;;24.27;58.85;100912.44;5055825;28;20096;-54
2023/01/11 12:01:45;;;;;;;16.42;2.78;;;;;;;25.02;57.16;100913.91;5056572;28;20040;-56
2023/01/11 12:04:16;;;;;;;19.37;2.63;;;;;;;24.13;57.79;100915.81;5057268;28;20038;-53